Time;durP1;ratioP1;P1;durP2;ratioP2;P2;SDS_P1;SDS_P2;PMS_P1;PMS_P2;Temp;Humidity;BMP_temperature;BMP_pressure;BME280_temperature;BME280_humidity;BME280_pressure;Samples;Min_cycle;Max_cycle;Signal;HPM_P1;HPM_P2
2022/06/23 00:00:44;;;;;;;26.23;23.77;;;;;;;20.64;75.12;100172.97;4131630;28;20042;-65
2022/06/23 00:02:48;;;;;;;34.53;30.90;;;;;;;20.58;75.15;100177.53;4113580;28;20043;-65
2022/06/23 00:04:55;;;;;;;34.83;31.40;;;;;;;20.56;75.31;100189.94;4130496;28;20402;-65
2022/06/23 00:07:01;;;;;;;32.63;29.08;;;;;;;20.56;75.29;100184.66;4131433;28;20038;-65
2022/06/23 00:09:36;;;;;;;30.00;26.70;;;;;;;20.56;75.46;100192.56;4113333;28;20053;-65
2022/06/23 00:11:49;;;;;;;29.85;26.80;;;;;;;20.53;75.63;100187.41;4119446;28;20082;-65
2022/06/23 00:14:05;;;;;;;34.28;30.77;;;;;;;20.56;75.32;100176.72;4131013;28;20134;-65
2022/06/23 00:16:23;;;;;;;39.20;35.20;;;;;;;20.58;75.20;100174.91;4130999;28;20104;-65
2022/06/23 00:18:27;;;;;;;40.55;35.80;;;;;;;20.55;75.31;100182.91;4131027;28;20039;-65
2022/06/23 00:20:44;;;;;;;37.33;33.42;;;;;;;20.52;75.20;100180.38;4131587;28;20431;-65
2022/06/23 00:22:50;;;;;;;31.20;27.83;;;;;;;20.56;75.06;100186.44;4131036;28;20507;-65
2022/06/23 00:24:56;;;;;;;33.63;29.88;;;;;;;20.56;75.10;100186.44;4130588;28;20418;-64
2022/06/23 00:26:59;;;;;;;33.38;29.95;;;;;;;20.59;74.84;100186.34;4131184;28;20409;-64
2022/06/23 00:29:07;;;;;;;30.88;27.83;;;;;;;20.60;74.98;100188.06;4118868;28;20416;-64
2022/06/23 00:31:26;;;;;;;28.98;25.92;;;;;;;20.60;74.69;100182.75;4114179;28;20461;-64
2022/06/23 00:33:31;;;;;;;33.25;30.05;;;;;;;20.67;74.70;100186.13;4126313;28;20052;-65
2022/06/23 00:35:35;;;;;;;30.13;27.05;;;;;;;20.69;74.21;100179.00;4135410;28;20066;-64
2022/06/23 00:37:38;;;;;;;39.97;36.22;;;;;;;20.67;74.47;100171.13;4131178;28;20157;-65
2022/06/23 00:39:43;;;;;;;45.97;41.33;;;;;;;20.75;74.32;100169.09;4129757;28;20045;-65
2022/06/23 00:41:48;;;;;;;41.63;37.38;;;;;;;20.70;74.06;100154.31;4132702;28;20038;-65
2022/06/23 00:43:52;;;;;;;43.83;39.13;;;;;;;20.62;74.35;100145.75;4131089;28;20126;-65
2022/06/23 00:46:05;;;;;;;42.17;37.63;;;;;;;20.53;74.90;100144.25;4130903;28;20061;-64
2022/06/23 00:48:16;;;;;;;40.33;36.17;;;;;;;20.48;75.59;100152.34;4131012;28;20486;-65
2022/06/23 00:50:25;;;;;;;35.00;31.40;;;;;;;20.44;75.80;100160.41;4129284;28;20039;-64
2022/06/23 00:52:35;;;;;;;40.20;35.90;;;;;;;20.43;75.50;100162.19;4130529;28;20556;-64
2022/06/23 00:54:44;;;;;;;40.22;36.00;;;;;;;20.45;75.76;100163.00;4129554;28;20176;-64
2022/06/23 00:56:55;;;;;;;41.88;37.72;;;;;;;20.50;75.66;100157.56;4131247;28;20038;-64
2022/06/23 00:59:04;;;;;;;38.50;34.70;;;;;;;20.50;75.47;100162.84;4131152;28;20117;-64
2022/06/23 01:01:18;;;;;;;32.00;28.73;;;;;;;20.46;75.33;100170.00;4112743;28;20050;-64
2022/06/23 01:03:28;;;;;;;28.75;25.30;;;;;;;20.46;75.51;100161.22;4130492;28;20529;-64
2022/06/23 01:05:37;;;;;;;35.10;31.73;;;;;;;20.48;75.39;100160.25;4130098;28;20046;-65
2022/06/23 01:07:44;;;;;;;38.67;34.78;;;;;;;20.53;74.98;100153.06;4119846;28;20045;-65
2022/06/23 01:09:53;;;;;;;38.08;34.22;;;;;;;20.51;75.00;100160.16;4130248;28;20092;-64
2022/06/23 01:12:01;;;;;;;27.45;24.65;;;;;;;20.42;75.08;100157.81;4130026;28;20402;-64
2022/06/23 01:14:16;;;;;;;26.42;23.25;;;;;;;20.37;75.37;100163.25;4113428;28;20525;-64
2022/06/23 01:16:25;;;;;;;23.55;21.15;;;;;;;20.34;75.31;100165.09;4130467;28;20050;-64
2022/06/23 01:18:35;;;;;;;29.38;26.38;;;;;;;20.35;75.43;100158.91;4133602;28;20030;-64
2022/06/23 01:20:50;;;;;;;25.55;22.85;;;;;;;20.38;75.29;100158.81;4125016;28;20421;-65
2022/06/23 01:23:28;;;;;;;23.50;21.05;;;;;;;20.35;75.11;100162.41;4098016;28;20047;-65
2022/06/23 01:25:44;;;;;;;26.00;23.17;;;;;;;20.39;75.27;100173.75;4142029;28;20121;-65
2022/06/23 01:28:00;;;;;;;28.65;25.45;;;;;;;20.32;75.12;100167.78;4133797;28;20054;-65
2022/06/23 01:30:06;;;;;;;27.10;24.17;;;;;;;20.32;75.46;100170.44;4132753;28;20065;-65
2022/06/23 01:32:17;;;;;;;26.42;23.63;;;;;;;20.36;75.22;100165.94;4133449;28;20078;-65
2022/06/23 01:34:30;;;;;;;23.95;21.08;;;;;;;20.37;74.96;100178.19;4131252;28;20129;-65
2022/06/23 01:36:38;;;;;;;28.40;25.60;;;;;;;20.34;75.16;100183.59;4133803;28;20460;-65
2022/06/23 01:38:54;;;;;;;26.10;23.27;;;;;;;20.38;74.94;100179.94;4122787;28;20170;-65
2022/06/23 01:41:00;;;;;;;29.92;26.75;;;;;;;20.35;74.89;100186.16;4133488;28;20034;-65
2022/06/23 01:43:12;;;;;;;24.42;20.77;;;;;;;20.28;75.17;100187.31;4133287;28;20038;-65
2022/06/23 01:45:21;;;;;;;24.15;21.63;;;;;;;20.30;75.28;100195.16;4133638;28;20409;-65
2022/06/23 01:47:31;;;;;;;26.80;23.90;;;;;;;20.27;75.12;100197.88;4127820;28;20540;-64
2022/06/23 01:49:42;;;;;;;24.85;22.35;;;;;;;20.26;75.17;100209.38;4133243;28;20046;-65
2022/06/23 01:51:48;;;;;;;26.35;23.73;;;;;;;20.18;75.77;100210.47;4135844;28;20209;-65
2022/06/23 01:53:53;;;;;;;25.63;22.88;;;;;;;20.20;75.65;100203.34;4128356;28;20070;-64
2022/06/23 01:56:18;;;;;;;25.00;22.50;;;;;;;20.19;75.69;100201.63;4133280;28;20046;-64
2022/06/23 01:58:26;;;;;;;24.63;21.98;;;;;;;20.18;76.15;100199.91;4120485;28;20049;-64
2022/06/23 02:00:29;;;;;;;27.77;24.80;;;;;;;20.20;76.04;100202.50;4127099;28;20064;-64
2022/06/23 02:02:46;;;;;;;26.25;23.58;;;;;;;20.23;76.10;100203.25;4132558;28;20532;-65
2022/06/23 02:04:56;;;;;;;24.55;22.02;;;;;;;20.23;75.99;100202.41;4132756;28;20034;-65
2022/06/23 02:07:06;;;;;;;24.67;21.70;;;;;;;20.28;76.10;100203.13;4115412;28;20131;-64
2022/06/23 02:09:17;;;;;;;29.27;26.42;;;;;;;20.37;75.54;100204.59;4132476;28;20035;-64
2022/06/23 02:11:28;;;;;;;22.05;19.85;;;;;;;20.33;75.56;100195.06;4133235;28;20130;-64
2022/06/23 02:13:42;;;;;;;24.42;22.02;;;;;;;20.30;75.48;100203.94;4132826;28;20475;-64
2022/06/23 02:15:55;;;;;;;19.60;17.50;;;;;;;20.34;75.25;100200.31;4132871;28;20097;-63
2022/06/23 02:18:02;;;;;;;21.92;19.77;;;;;;;20.34;75.31;100199.41;4133157;28;20041;-64
2022/06/23 02:20:21;;;;;;;26.92;24.23;;;;;;;20.33;75.16;100200.34;4132463;28;20047;-64
2022/06/23 02:22:28;;;;;;;20.40;18.23;;;;;;;20.26;75.19;100202.31;4130686;28;20042;-64
2022/06/23 02:24:38;;;;;;;23.52;21.13;;;;;;;20.28;75.30;100205.78;4137280;28;20122;-64
2022/06/23 02:26:55;;;;;;;23.70;21.27;;;;;;;20.23;75.16;100203.25;4132620;28;20046;-64
2022/06/23 02:29:04;;;;;;;21.77;19.50;;;;;;;20.20;75.30;100219.19;4134472;28;20065;-64
2022/06/23 02:31:17;;;;;;;26.48;23.70;;;;;;;20.23;75.17;100207.69;4133066;28;20062;-64
2022/06/23 02:33:24;;;;;;;25.45;22.85;;;;;;;20.22;75.50;100222.66;4132586;28;20073;-64
2022/06/23 02:35:32;;;;;;;30.75;27.70;;;;;;;20.21;75.08;100213.00;4132628;28;20034;-64
2022/06/23 02:37:52;;;;;;;30.63;27.63;;;;;;;20.17;75.26;100214.00;4119183;28;20516;-63
2022/06/23 02:39:59;;;;;;;27.88;24.88;;;;;;;20.14;75.28;100211.44;4132826;28;20466;-63
2022/06/23 02:42:06;;;;;;;21.95;19.88;;;;;;;20.20;74.96;100207.78;4131872;28;20514;-63
2022/06/23 02:44:29;;;;;;;24.70;21.13;;;;;;;20.20;75.24;100208.63;4131972;28;20062;-63
2022/06/23 02:46:46;;;;;;;25.80;23.23;;;;;;;20.21;75.19;100220.06;4129432;28;20536;-63
2022/06/23 02:49:15;;;;;;;27.23;24.52;;;;;;;20.18;75.42;100225.41;4132577;28;20066;-63
2022/06/23 02:51:33;;;;;;;33.72;30.13;;;;;;;20.15;75.93;100223.75;4121504;28;20038;-63
2022/06/23 02:53:52;;;;;;;28.58;25.58;;;;;;;20.16;75.57;100220.19;4132180;28;20101;-63
2022/06/23 02:56:23;;;;;;;40.88;34.75;;;;;;;20.18;75.64;100225.41;4117231;28;20037;-63
2022/06/23 02:58:32;;;;;;;35.17;31.58;;;;;;;20.22;75.52;100222.66;4125490;28;20050;-63
2022/06/23 03:00:44;;;;;;;30.63;27.58;;;;;;;20.20;75.62;100221.81;4131182;28;20081;-63
2022/06/23 03:03:02;;;;;;;29.70;26.50;;;;;;;20.21;75.67;100226.19;4132241;28;20065;-63
2022/06/23 03:05:13;;;;;;;30.05;26.95;;;;;;;20.21;75.51;100220.94;4119976;28;20042;-64
2022/06/23 03:07:30;;;;;;;30.67;27.35;;;;;;;20.21;75.51;100228.00;4134581;28;20684;-64
2022/06/23 03:09:39;;;;;;;30.52;27.38;;;;;;;20.25;75.54;100226.09;4123026;28;20493;-64
2022/06/23 03:11:54;;;;;;;32.60;29.20;;;;;;;20.25;75.75;100226.97;4132201;28;20061;-63
2022/06/23 03:14:00;;;;;;;26.40;23.58;;;;;;;20.25;75.40;100226.97;4130434;28;20093;-63
2022/06/23 03:16:13;;;;;;;32.13;28.88;;;;;;;20.27;75.37;100233.06;4131822;28;20390;-63
2022/06/23 03:18:21;;;;;;;28.17;25.48;;;;;;;20.22;75.11;100229.69;4119487;28;20477;-63
2022/06/23 03:20:37;;;;;;;29.13;26.35;;;;;;;20.19;75.27;100238.59;4114599;28;20105;-64
2022/06/23 03:22:48;;;;;;;29.83;26.83;;;;;;;20.30;74.93;100237.41;4131273;28;20065;-64
2022/06/23 03:25:01;;;;;;;30.02;27.10;;;;;;;20.33;74.66;100245.25;4132021;28;20049;-64
2022/06/23 03:27:14;;;;;;;27.17;24.15;;;;;;;20.31;74.81;100241.75;4131840;28;20125;-64
2022/06/23 03:29:23;;;;;;;31.15;27.90;;;;;;;20.31;74.86;100239.13;4126110;28;20552;-64
2022/06/23 03:31:32;;;;;;;32.40;29.17;;;;;;;20.32;75.46;100246.13;4132101;28;20100;-64
2022/06/23 03:33:41;;;;;;;30.25;27.15;;;;;;;20.32;75.51;100251.41;4131847;28;20038;-64
2022/06/23 03:35:50;;;;;;;35.35;31.63;;;;;;;20.22;75.76;100261.38;4131024;28;20069;-64
2022/06/23 03:38:03;;;;;;;31.45;28.10;;;;;;;20.23;75.91;100266.59;4132078;28;20038;-64
2022/06/23 03:42:42;;;;;;;42.95;38.55;;;;;;;20.30;75.93;100263.81;4131152;28;20042;-64
2022/06/23 03:44:53;;;;;;;44.00;39.42;;;;;;;20.31;75.71;100257.59;4131641;28;20478;-64
2022/06/23 03:47:04;;;;;;;48.58;41.65;;;;;;;20.29;75.89;100248.88;4130328;28;20125;-64
2022/06/23 03:49:15;;;;;;;77.63;42.50;;;;;;;20.21;76.09;100246.47;4126579;28;20129;-64
2022/06/23 03:51:22;;;;;;;45.67;41.00;;;;;;;20.14;76.62;100258.97;4123784;28;20034;-64
2022/06/23 03:53:29;;;;;;;69.60;43.70;;;;;;;20.15;76.64;100252.78;4128250;28;20145;-63
2022/06/23 03:55:42;;;;;;;55.22;44.58;;;;;;;20.25;76.19;100247.22;4113881;28;20298;-63
2022/06/23 03:57:53;;;;;;;41.10;36.75;;;;;;;20.14;76.22;100256.31;4120348;28;20039;-63
2022/06/23 04:00:07;;;;;;;29.83;26.70;;;;;;;20.06;76.64;100258.31;4131753;28;20397;-63
2022/06/23 04:02:17;;;;;;;33.72;30.20;;;;;;;19.96;77.11;100256.84;4098097;28;21967;-63
2022/06/23 04:04:22;;;;;;;32.97;29.65;;;;;;;19.94;77.24;100258.66;4126332;28;20065;-63
2022/06/23 04:06:38;;;;;;;32.42;29.13;;;;;;;19.96;77.57;100262.09;4131222;28;20046;-64
2022/06/23 04:08:53;;;;;;;40.45;35.50;;;;;;;20.03;77.45;100266.31;4130292;28;20132;-63
2022/06/23 04:11:43;;;;;;;36.70;33.10;;;;;;;20.07;76.98;100269.75;4130844;28;20046;-63
2022/06/23 04:13:30;;;;;;;31.73;28.48;;;;;;;20.03;77.40;100269.84;4130189;28;20042;-64
2022/06/23 04:15:38;;;;;;;40.42;36.38;;;;;;;20.09;77.33;100275.84;4125950;28;20104;-63
2022/06/23 04:17:46;;;;;;;37.85;34.20;;;;;;;20.11;76.88;100274.88;4131423;28;20060;-63
2022/06/23 04:19:52;;;;;;;33.17;29.88;;;;;;;20.17;76.70;100269.44;4130666;28;20033;-63
2022/06/23 04:22:04;;;;;;;35.92;32.45;;;;;;;20.15;76.74;100279.19;4133418;28;20050;-64
2022/06/23 04:24:17;;;;;;;36.65;32.95;;;;;;;20.20;76.60;100273.75;4130418;28;20049;-61
2022/06/23 04:26:26;;;;;;;20.13;18.20;;;;;;;20.32;75.55;100278.66;4126018;28;20504;-61
2022/06/23 04:28:41;;;;;;;24.23;21.98;;;;;;;20.55;74.66;100271.84;4116731;28;20501;-61
2022/06/23 04:30:46;;;;;;;23.48;18.83;;;;;;;20.76;73.85;100270.34;4117133;28;20047;-61
2022/06/23 04:32:52;;;;;;;22.00;20.00;;;;;;;20.89;73.46;100274.34;4128288;28;20133;-62
2022/06/23 04:35:00;;;;;;;35.65;32.13;;;;;;;21.04;73.21;100266.84;4130669;28;20038;-62
2022/06/23 04:37:04;;;;;;;23.75;21.38;;;;;;;20.80;73.68;100269.34;4131339;28;20129;-62
2022/06/23 04:39:17;;;;;;;20.20;17.92;;;;;;;20.78;73.69;100268.56;4146456;28;20161;-61
2022/06/23 04:41:25;;;;;;;21.42;19.23;;;;;;;20.89;73.58;100270.84;4130377;28;20058;-62
2022/06/23 04:43:35;;;;;;;21.38;17.48;;;;;;;21.01;73.20;100264.31;4111220;28;20065;-61
2022/06/23 04:45:53;;;;;;;21.00;18.00;;;;;;;21.13;72.78;100271.84;4131299;28;20496;-62
2022/06/23 04:48:02;;;;;;;30.05;27.23;;;;;;;21.24;72.66;100271.47;4129597;28;20081;-62
2022/06/23 04:50:14;;;;;;;18.25;16.35;;;;;;;21.22;72.48;100274.19;4129915;28;20053;-62
2022/06/23 04:52:21;;;;;;;35.53;30.30;;;;;;;21.31;72.79;100272.16;4148939;28;20073;-62
2022/06/23 04:54:27;;;;;;;20.38;16.60;;;;;;;21.16;72.76;100268.22;4133567;28;20046;-62
2022/06/23 04:56:42;;;;;;;24.67;20.38;;;;;;;21.21;72.74;100264.50;4133658;28;20046;-62
2022/06/23 04:58:51;;;;;;;21.08;18.88;;;;;;;21.22;72.67;100271.53;4134306;28;20077;-62
2022/06/23 05:00:55;;;;;;;19.77;15.70;;;;;;;21.25;72.49;100274.06;4134173;28;20137;-62
2022/06/23 05:03:05;;;;;;;17.63;15.25;;;;;;;21.36;72.24;100275.50;4133442;28;20130;-62
2022/06/23 05:05:14;;;;;;;29.25;24.58;;;;;;;21.44;72.54;100276.13;4109098;28;20043;-62
2022/06/23 05:07:23;;;;;;;31.85;27.20;;;;;;;21.40;72.87;100275.34;4134711;28;20054;-62
2022/06/23 05:09:32;;;;;;;26.08;21.83;;;;;;;21.31;73.06;100274.81;4133359;28;20560;-62
2022/06/23 05:11:44;;;;;;;40.78;32.47;;;;;;;21.37;73.35;100277.22;4133897;28;20042;-62
2022/06/23 05:13:50;;;;;;;41.83;33.33;;;;;;;21.25;73.72;100268.78;4120840;28;20054;-62
2022/06/23 05:16:06;;;;;;;31.38;24.48;;;;;;;21.10;73.85;100282.53;4117184;28;20047;-62
2022/06/23 05:18:15;;;;;;;25.33;20.08;;;;;;;21.02;74.02;100287.19;4133610;28;20050;-62
2022/06/23 05:20:22;;;;;;;48.88;35.20;;;;;;;21.12;74.22;100287.75;4149054;28;20038;-62
2022/06/23 05:22:30;;;;;;;22.77;18.08;;;;;;;21.05;73.87;100284.44;4133095;28;20050;-62
2022/06/23 05:24:39;;;;;;;45.50;31.70;;;;;;;21.20;74.00;100293.63;4134153;28;20058;-62
2022/06/23 05:26:48;;;;;;;24.77;20.00;;;;;;;21.25;73.56;100292.59;4116897;28;20054;-62
2022/06/23 05:28:59;;;;;;;24.63;19.55;;;;;;;21.32;73.01;100287.97;4134485;28;20042;-62
2022/06/23 05:31:09;;;;;;;30.10;22.15;;;;;;;21.42;72.87;100292.03;4100845;28;20043;-62
2022/06/23 05:33:17;;;;;;;32.72;23.83;;;;;;;21.44;72.92;100291.97;4133847;28;20050;-62
2022/06/23 05:35:24;;;;;;;24.25;18.38;;;;;;;21.44;72.66;100284.03;4137983;28;20042;-62
2022/06/23 05:37:33;;;;;;;26.30;19.30;;;;;;;21.51;72.42;100285.59;4124674;28;20060;-62
2022/06/23 05:39:45;;;;;;;28.52;21.20;;;;;;;21.64;72.14;100290.47;4117003;28;20046;-62
2022/06/23 05:41:52;;;;;;;25.42;19.33;;;;;;;21.64;72.21;100293.09;4116442;28;20045;-62
2022/06/23 05:43:58;;;;;;;34.25;20.00;;;;;;;21.66;71.83;100296.59;4134043;28;20070;-62
2022/06/23 05:46:04;;;;;;;42.28;29.88;;;;;;;21.74;72.30;100287.47;4134162;28;20042;-62
2022/06/23 05:48:11;;;;;;;27.98;20.83;;;;;;;21.69;71.82;100294.69;4132586;28;20093;-62
2022/06/23 05:50:21;;;;;;;24.10;18.25;;;;;;;21.74;71.50;100294.50;4133359;28;20038;-63
2022/06/23 05:52:28;;;;;;;29.98;20.75;;;;;;;21.81;71.42;100293.38;4126542;28;20073;-63
2022/06/23 05:54:36;;;;;;;37.20;24.70;;;;;;;21.89;71.29;100296.63;4133902;28;20497;-63
2022/06/23 05:56:48;;;;;;;28.95;22.40;;;;;;;21.84;71.34;100300.34;4133867;28;20046;-63
2022/06/23 05:58:55;;;;;;;30.85;25.63;;;;;;;21.70;71.82;100295.53;4132713;28;20049;-63
2022/06/23 06:01:04;;;;;;;31.38;24.48;;;;;;;21.62;72.20;100298.44;4132584;28;20038;-63
2022/06/23 06:03:15;;;;;;;39.28;30.27;;;;;;;21.68;72.51;100300.03;4131541;28;20142;-62
2022/06/23 06:05:27;;;;;;;32.65;27.08;;;;;;;21.62;72.77;100298.44;4148533;28;20072;-63
2022/06/23 06:07:34;;;;;;;33.75;27.17;;;;;;;21.63;72.65;100304.63;4133745;28;20042;-63
2022/06/23 06:09:40;;;;;;;39.03;29.85;;;;;;;21.66;72.85;100300.06;4133772;28;20052;-63
2022/06/23 06:11:47;;;;;;;28.60;23.58;;;;;;;21.59;72.77;100302.06;4134359;28;20039;-62
2022/06/23 06:13:50;;;;;;;39.45;29.75;;;;;;;21.60;72.85;100309.09;4124240;28;20100;-62
2022/06/23 06:15:56;;;;;;;36.03;28.52;;;;;;;21.55;73.26;100302.22;4133498;28;20057;-63
2022/06/23 06:18:07;;;;;;;35.22;27.60;;;;;;;21.60;73.41;100305.59;4133568;28;20053;-62
2022/06/23 06:20:12;;;;;;;35.55;31.48;;;;;;;21.58;73.57;100308.28;4103464;28;20077;-63
2022/06/23 06:22:39;;;;;;;41.42;32.70;;;;;;;21.70;73.14;100303.47;4139854;28;20053;-63
2022/06/23 06:24:46;;;;;;;36.40;27.55;;;;;;;21.61;73.67;100308.19;4132366;28;20129;-63
2022/06/23 06:26:52;;;;;;;39.03;30.83;;;;;;;21.69;73.42;100304.41;4133369;28;20050;-63
2022/06/23 06:29:00;;;;;;;38.35;30.30;;;;;;;21.74;73.62;100302.44;4133508;28;20045;-63
2022/06/23 06:31:11;;;;;;;29.83;21.35;;;;;;;21.71;73.11;100307.84;4132254;28;20093;-63
2022/06/23 06:33:30;;;;;;;38.03;29.15;;;;;;;21.77;73.26;100304.97;4133002;28;20054;-63
2022/06/23 06:35:38;;;;;;;27.27;22.45;;;;;;;21.74;73.21;100310.38;4132379;28;20424;-63
2022/06/23 06:37:46;;;;;;;27.90;21.92;;;;;;;21.73;73.27;100311.31;4133163;28;20507;-63
2022/06/23 06:39:54;;;;;;;30.92;22.65;;;;;;;21.70;73.30;100307.00;4132033;28;20137;-62
2022/06/23 06:42:01;;;;;;;28.40;21.80;;;;;;;21.65;73.66;100308.06;4132704;28;20034;-63
2022/06/23 06:44:04;;;;;;;30.83;24.50;;;;;;;21.70;73.59;100309.66;4137852;28;20433;-63
2022/06/23 06:46:07;;;;;;;30.13;24.17;;;;;;;21.70;73.52;100309.66;4139939;28;20065;-62
2022/06/23 06:48:15;;;;;;;47.60;34.40;;;;;;;21.81;73.31;100303.97;4132255;28;20046;-62
2022/06/23 06:50:28;;;;;;;38.95;26.90;;;;;;;21.71;73.27;100311.38;4132940;28;20038;-62
2022/06/23 06:52:32;;;;;;;46.08;31.90;;;;;;;21.70;73.33;100311.41;4132721;28;20125;-62
2022/06/23 06:54:42;;;;;;;32.20;25.33;;;;;;;21.64;73.59;100314.28;4115613;28;20053;-62
2022/06/23 06:56:49;;;;;;;48.17;32.17;;;;;;;21.68;73.69;100313.25;4115644;28;20485;-62
2022/06/23 06:58:58;;;;;;;33.15;24.88;;;;;;;21.68;73.68;100315.91;4132402;28;20130;-62
2022/06/23 07:01:06;;;;;;;36.33;25.92;;;;;;;21.70;73.21;100316.69;4132774;28;20034;-62
2022/06/23 07:03:11;;;;;;;38.75;28.55;;;;;;;21.71;73.57;100316.69;4131697;28;20035;-64
2022/06/23 07:05:23;;;;;;;31.42;23.63;;;;;;;21.66;73.47;100309.81;4132545;28;20046;-62
2022/06/23 07:07:32;;;;;;;35.60;25.38;;;;;;;21.66;73.62;100315.09;4131611;28;20053;-63
2022/06/23 07:09:40;;;;;;;36.13;26.23;;;;;;;21.82;73.30;100321.59;4132670;28;20065;-62
2022/06/23 07:11:48;;;;;;;42.28;32.10;;;;;;;21.91;72.94;100321.25;4131114;28;20145;-64
2022/06/23 07:13:57;;;;;;;39.28;28.27;;;;;;;21.89;72.83;100320.47;4132043;28;20042;-66
2022/06/23 07:16:05;;;;;;;38.83;27.60;;;;;;;21.81;73.01;100319.00;4132679;28;20132;-62
2022/06/23 07:18:17;;;;;;;32.85;23.42;;;;;;;21.86;72.69;100317.03;4132638;28;20133;-62
2022/06/23 07:20:26;;;;;;;40.13;27.92;;;;;;;21.81;73.07;100311.91;4131735;28;20578;-62
2022/06/23 07:22:34;;;;;;;30.65;21.48;;;;;;;21.90;72.55;100308.97;4131970;28;20543;-64
2022/06/23 07:24:46;;;;;;;30.63;22.40;;;;;;;21.95;72.54;100312.28;4132466;28;20038;-62
2022/06/23 07:26:52;;;;;;;28.67;21.42;;;;;;;21.93;72.56;100307.97;4135823;28;20034;-63
2022/06/23 07:29:01;;;;;;;33.83;22.98;;;;;;;21.95;72.71;100307.00;4132311;28;20066;-63
2022/06/23 07:31:14;;;;;;;37.08;24.77;;;;;;;22.03;72.29;100308.50;4099097;29;20375;-63
2022/06/23 07:33:22;;;;;;;40.95;28.05;;;;;;;21.97;72.48;100299.84;4131955;28;20045;-64
2022/06/23 07:35:33;;;;;;;29.58;23.35;;;;;;;21.95;72.82;100309.66;4115036;28;20138;-64
2022/06/23 07:37:48;;;;;;;36.65;26.02;;;;;;;21.89;72.88;100311.63;4132335;28;20125;-64
2022/06/23 07:40:00;;;;;;;38.55;26.83;;;;;;;21.88;72.95;100310.78;4131350;28;20084;-64
2022/06/23 07:42:11;;;;;;;31.13;23.20;;;;;;;21.91;72.73;100308.03;4120473;28;20125;-64
2022/06/23 07:44:18;;;;;;;31.23;22.48;;;;;;;21.94;72.46;100305.25;4132183;28;20041;-64
2022/06/23 07:46:21;;;;;;;30.33;23.13;;;;;;;21.99;72.50;100313.06;4114926;28;20413;-64
2022/06/23 07:48:26;;;;;;;33.65;25.20;;;;;;;21.95;72.87;100309.66;4130588;28;20049;-64
2022/06/23 07:50:29;;;;;;;32.58;23.40;;;;;;;21.95;72.66;100317.59;4132258;28;20665;-64
2022/06/23 07:52:33;;;;;;;36.45;23.35;;;;;;;21.94;72.72;100305.25;4131784;28;20054;-64
2022/06/23 07:54:36;;;;;;;31.60;21.73;;;;;;;22.05;72.64;100319.91;4132050;28;20042;-64
2022/06/23 07:56:40;;;;;;;26.80;20.73;;;;;;;22.16;71.73;100308.94;4131060;28;20489;-65
2022/06/23 07:58:46;;;;;;;32.83;22.17;;;;;;;22.05;71.90;100315.47;4106614;28;20437;-64
2022/06/23 08:00:54;;;;;;;24.60;18.13;;;;;;;22.16;71.91;100309.78;4131974;28;20089;-64
2022/06/23 08:03:01;;;;;;;25.77;17.13;;;;;;;22.21;71.50;100317.56;4131517;28;20048;-64
2022/06/23 08:05:14;;;;;;;23.17;16.90;;;;;;;22.44;70.84;100308.81;4131992;28;20034;-64
2022/06/23 08:07:17;;;;;;;24.63;19.70;;;;;;;22.48;70.43;100311.28;4114673;28;20046;-65
2022/06/23 08:09:31;;;;;;;26.05;18.83;;;;;;;22.52;70.04;100309.38;4130547;28;20052;-64
2022/06/23 08:14:17;;;;;;;25.23;18.27;;;;;;;22.71;69.56;100311.34;4115058;28;20133;-64
2022/06/23 08:18:46;;;;;;;25.90;18.00;;;;;;;22.90;69.60;100296.44;4131996;28;20462;-65
2022/06/23 08:20:56;;;;;;;26.77;19.58;;;;;;;22.88;69.02;100300.06;4131716;28;20038;-64
2022/06/23 08:23:02;;;;;;;25.55;19.48;;;;;;;22.92;69.03;100299.88;4114086;28;20045;-64
2022/06/23 08:25:08;;;;;;;23.80;18.48;;;;;;;22.97;69.18;100289.13;4130794;28;20129;-64
2022/06/23 08:27:28;;;;;;;25.02;17.75;;;;;;;23.14;68.74;100291.09;4124694;28;20092;-65
2022/06/23 08:29:38;;;;;;;18.77;16.05;;;;;;;23.35;67.96;100287.56;4131673;28;20070;-64
2022/06/23 08:31:41;;;;;;;20.48;16.27;;;;;;;23.38;67.96;100291.00;4131333;28;20053;-65
2022/06/23 08:34:02;;;;;;;23.95;16.27;;;;;;;23.46;67.90;100288.91;4146521;28;20084;-65
2022/06/23 08:36:09;;;;;;;22.38;14.35;;;;;;;23.56;68.17;100284.94;4131514;28;20069;-65
2022/06/23 08:38:17;;;;;;;20.67;15.68;;;;;;;23.53;67.13;100285.91;4131558;28;20171;-65
2022/06/23 08:40:29;;;;;;;20.25;15.95;;;;;;;23.53;66.67;100274.44;4130571;28;20129;-65
2022/06/23 08:42:39;;;;;;;20.25;15.25;;;;;;;23.50;66.10;100274.59;4130980;28;20034;-65
2022/06/23 08:44:50;;;;;;;18.67;14.60;;;;;;;23.56;65.85;100266.34;4131486;28;20141;-65
2022/06/23 08:46:58;;;;;;;21.83;14.05;;;;;;;23.69;65.77;100269.34;4131313;28;20125;-66
2022/06/23 08:49:06;;;;;;;19.35;15.88;;;;;;;23.83;65.43;100268.72;4133335;28;20045;-65
2022/06/23 08:51:20;;;;;;;18.63;14.80;;;;;;;24.00;64.96;100263.56;4131352;28;20069;-65
2022/06/23 08:53:30;;;;;;;23.23;15.93;;;;;;;23.95;64.64;100257.59;4130222;28;20125;-66
2022/06/23 08:55:41;;;;;;;25.10;17.60;;;;;;;24.17;63.62;100261.97;4131242;28;20475;-65
2022/06/23 08:58:00;;;;;;;22.05;13.55;;;;;;;24.08;64.67;100249.06;4131462;28;20108;-65
2022/06/23 09:00:09;;;;;;;18.40;13.98;;;;;;;24.04;64.51;100254.53;4114429;28;20101;-66
2022/06/23 09:02:18;;;;;;;17.42;12.50;;;;;;;24.04;63.98;100254.53;4131966;28;20125;-65
2022/06/23 09:04:54;;;;;;;18.02;12.43;;;;;;;24.15;63.60;100262.03;4130673;28;20047;-65
2022/06/23 09:07:04;;;;;;;21.48;12.82;;;;;;;24.17;63.42;100260.16;4131387;28;20039;-66
2022/06/23 09:09:23;;;;;;;22.33;13.82;;;;;;;24.34;62.50;100255.84;4131320;28;20046;-65
2022/06/23 09:11:36;;;;;;;20.98;12.13;;;;;;;24.36;62.53;100252.19;4131267;28;20509;-65
2022/06/23 09:13:54;;;;;;;17.50;12.85;;;;;;;24.48;62.25;100250.75;4098074;29;20039;-65
2022/06/23 09:16:18;;;;;;;16.60;10.55;;;;;;;24.48;62.58;100250.75;4144722;28;20034;-66
2022/06/23 09:19:01;;;;;;;15.57;10.63;;;;;;;24.50;62.25;100256.00;4129996;28;20050;-66
2022/06/23 09:21:18;;;;;;;13.00;9.00;;;;;;;24.60;61.04;100254.66;4126899;28;20054;-65
2022/06/23 09:23:58;;;;;;;15.90;8.98;;;;;;;24.63;60.48;100257.16;4131171;28;20052;-65
2022/06/23 09:26:06;;;;;;;11.73;8.95;;;;;;;24.61;60.38;100243.09;4131255;28;20046;-65
2022/06/23 09:28:18;;;;;;;13.07;7.40;;;;;;;24.73;60.88;100242.50;4131204;28;20053;-66
2022/06/23 09:30:34;;;;;;;15.90;8.88;;;;;;;24.74;60.58;100244.22;4133519;28;20560;-66
2022/06/23 09:32:55;;;;;;;14.68;9.27;;;;;;;24.70;59.64;100245.31;4111255;28;20042;-66
2022/06/23 09:35:13;;;;;;;14.02;8.10;;;;;;;24.72;60.04;100245.22;4116043;28;20066;-66
2022/06/23 09:37:54;;;;;;;13.60;8.15;;;;;;;24.85;59.78;100242.84;4132099;28;20428;-66
2022/06/23 09:40:16;;;;;;;11.30;7.40;;;;;;;24.91;59.72;100238.09;4134265;28;20062;-66
2022/06/23 09:42:37;;;;;;;13.52;7.57;;;;;;;25.05;59.44;100233.88;4133580;28;20112;-66
2022/06/23 09:45:01;;;;;;;15.00;7.97;;;;;;;25.19;59.55;100243.81;4132809;28;20050;-66
2022/06/23 09:47:31;;;;;;;11.75;7.10;;;;;;;25.34;58.90;100232.44;4133259;28;20484;-66
2022/06/23 09:49:52;;;;;;;;;;;;;;;25.48;58.40;100237.06;4138088;28;20450;-66
2022/06/23 09:52:37;;;;;;;11.45;6.80;;;;;;;25.63;57.23;100234.53;4130742;28;20020;-66
2022/06/23 09:55:13;;;;;;;15.32;6.85;;;;;;;25.63;57.72;100222.09;4100681;28;20391;-66
2022/06/23 09:57:39;;;;;;;11.73;6.43;;;;;;;25.80;58.54;100223.84;4094429;28;20051;-66
2022/06/23 09:59:56;;;;;;;9.90;5.85;;;;;;;25.91;56.57;100225.97;4117842;28;20083;-66
2022/06/23 10:02:09;;;;;;;13.40;6.03;;;;;;;25.93;55.95;100218.72;4117401;28;20047;-66
2022/06/23 10:04:49;;;;;;;12.65;6.70;;;;;;;25.96;55.82;100224.78;4120929;28;20043;-66